Time;durP1;ratioP1;P1;durP2;ratioP2;P2;SDS_P1;SDS_P2;PMS_P1;PMS_P2;Temp;Humidity;BMP_temperature;BMP_pressure;BME280_temperature;BME280_humidity;BME280_pressure;Samples;Min_cycle;Max_cycle;Signal;HPM_P1;HPM_P2
2020/12/08 00:00:59;;;;;;;12.95;10.90;;;;;;;;;;5093560;28;20242;-66
2020/12/08 00:03:26;;;;;;;13.10;10.80;;;;;;;;;;5093583;28;20197;-65
2020/12/08 00:05:52;;;;;;;13.35;11.73;;;;;;;;;;5093391;28;20301;-67
2020/12/08 00:08:19;;;;;;;12.27;10.98;;;;;;;;;;5093620;28;20227;-65
2020/12/08 00:10:46;;;;;;;12.23;10.93;;;;;;;;;;5093530;28;20220;-66
2020/12/08 00:13:13;;;;;;;11.95;10.65;;;;;;;;;;5093624;28;20273;-65
2020/12/08 00:15:40;;;;;;;13.20;10.60;;;;;;;;;;5093762;28;20252;-65
2020/12/08 00:18:07;;;;;;;10.85;9.38;;;;;;;;;;5093533;28;20574;-65
2020/12/08 00:20:34;;;;;;;15.18;11.43;;;;;;;;;;5093969;28;20637;-65
2020/12/08 00:23:00;;;;;;;12.25;10.10;;;;;;;;;;5095410;28;20204;-66
2020/12/08 00:25:27;;;;;;;11.35;10.27;;;;;;;;;;5098393;28;20250;-66
2020/12/08 00:27:54;;;;;;;12.40;11.10;;;;;;;;;;5105195;28;20215;-66
2020/12/08 00:30:22;;;;;;;13.23;10.73;;;;;;;;;;5097968;28;20232;-65
2020/12/08 00:32:50;;;;;;;12.80;11.07;;;;;;;;;;5097631;28;20203;-66
2020/12/08 00:35:17;;;;;;;12.65;10.70;;;;;;;;;;5097639;28;20273;-67
2020/12/08 00:37:44;;;;;;;12.73;10.93;;;;;;;;;;5097594;28;20269;-65
2020/12/08 00:40:11;;;;;;;13.07;10.93;;;;;;;;;;5098752;28;20235;-67
2020/12/08 00:42:39;;;;;;;11.50;10.30;;;;;;;;;;5099635;28;20208;-66
2020/12/08 00:45:06;;;;;;;11.55;9.98;;;;;;;;;;5099801;28;20208;-66
2020/12/08 00:47:33;;;;;;;12.10;10.80;;;;;;;;;;5098364;28;20201;-66
2020/12/08 00:50:01;;;;;;;12.73;10.80;;;;;;;;;;5098801;28;20227;-65
2020/12/08 00:52:28;;;;;;;13.23;11.73;;;;;;;;;;5099368;28;20200;-66
2020/12/08 00:54:55;;;;;;;11.98;10.65;;;;;;;;;;5098292;28;20197;-66
2020/12/08 00:57:22;;;;;;;12.45;11.25;;;;;;;;;;5097666;28;20204;-66
2020/12/08 00:59:48;;;;;;;13.30;10.60;;;;;;;;;;5097396;28;20769;-65
2020/12/08 01:02:16;;;;;;;11.85;10.55;;;;;;;;;;5097255;28;20729;-66
2020/12/08 01:04:42;;;;;;;12.18;9.75;;;;;;;;;;5097240;28;20613;-66
2020/12/08 01:07:10;;;;;;;13.23;11.00;;;;;;;;;;5096542;28;20254;-66
2020/12/08 01:09:37;;;;;;;11.43;10.23;;;;;;;;;;5096509;28;20699;-66
2020/12/08 01:12:04;;;;;;;11.98;10.77;;;;;;;;;;5096956;28;20254;-65
2020/12/08 01:14:31;;;;;;;11.73;10.52;;;;;;;;;;5097054;28;20250;-65
2020/12/08 01:16:58;;;;;;;12.20;10.57;;;;;;;;;;5097426;28;20261;-66
2020/12/08 01:19:25;;;;;;;12.00;10.80;;;;;;;;;;5097409;28;20223;-65
2020/12/08 01:21:52;;;;;;;12.90;10.90;;;;;;;;;;5097002;28;20577;-66
2020/12/08 01:24:20;;;;;;;11.23;10.13;;;;;;;;;;5096933;28;20291;-66
2020/12/08 01:26:46;;;;;;;11.65;10.30;;;;;;;;;;5096376;28;20667;-65
2020/12/08 01:29:13;;;;;;;12.85;11.52;;;;;;;;;;5096462;28;20331;-65
2020/12/08 01:31:40;;;;;;;12.50;11.20;;;;;;;;;;5096516;28;20200;-65
2020/12/08 01:34:07;;;;;;;13.90;12.50;;;;;;;;;;5095809;28;20208;-65
2020/12/08 01:36:33;;;;;;;12.95;11.68;;;;;;;;;;5096108;28;20310;-66
2020/12/08 01:39:00;;;;;;;17.17;11.43;;;;;;;;;;5096916;28;20667;-65
2020/12/08 01:41:28;;;;;;;14.00;12.57;;;;;;;;;;5097063;28;20258;-65
2020/12/08 01:43:55;;;;;;;14.10;12.27;;;;;;;;;;5096945;28;20200;-65
2020/12/08 01:46:24;;;;;;;14.15;10.63;;;;;;;;;;5096890;28;20200;-65
2020/12/08 01:48:51;;;;;;;14.63;12.77;;;;;;;;;;5098412;28;20216;-65
2020/12/08 01:51:19;;;;;;;13.45;10.90;;;;;;;;;;5098017;28;20201;-66
2020/12/08 01:53:45;;;;;;;13.18;11.48;;;;;;;;;;5096755;28;20617;-66
2020/12/08 01:56:13;;;;;;;15.32;12.05;;;;;;;;;;5096211;28;20200;-66
2020/12/08 01:58:40;;;;;;;13.52;10.95;;;;;;;;;;5096317;28;20199;-65
2020/12/08 02:01:08;;;;;;;14.90;11.13;;;;;;;;;;5096290;28;20216;-65
2020/12/08 02:03:35;;;;;;;12.50;11.20;;;;;;;;;;5096495;28;20197;-66
2020/12/08 02:06:02;;;;;;;12.48;11.20;;;;;;;;;;5095970;28;20577;-66
2020/12/08 02:08:29;;;;;;;15.75;11.57;;;;;;;;;;5102743;28;20242;-65
2020/12/08 02:10:56;;;;;;;14.85;11.95;;;;;;;;;;5109567;28;20242;-66
2020/12/08 02:13:23;;;;;;;13.25;11.90;;;;;;;;;;5101271;28;20246;-67
2020/12/08 02:15:51;;;;;;;12.38;11.07;;;;;;;;;;5098970;28;20286;-66
2020/12/08 02:18:17;;;;;;;13.30;11.15;;;;;;;;;;5096961;28;20721;-65
2020/12/08 02:20:45;;;;;;;14.07;11.68;;;;;;;;;;5096175;28;20242;-66
2020/12/08 02:23:12;;;;;;;12.80;11.30;;;;;;;;;;5096128;28;20249;-67
2020/12/08 02:25:41;;;;;;;14.10;10.93;;;;;;;;;;5095866;28;20196;-65
2020/12/08 02:28:08;;;;;;;14.15;11.77;;;;;;;;;;5095587;28;20265;-67
2020/12/08 02:30:35;;;;;;;12.77;10.63;;;;;;;;;;5095295;28;20715;-65
2020/12/08 02:33:02;;;;;;;14.40;12.43;;;;;;;;;;5095431;28;20258;-65
2020/12/08 02:35:28;;;;;;;15.88;11.95;;;;;;;;;;5095552;28;20230;-66
2020/12/08 02:37:56;;;;;;;13.90;11.18;;;;;;;;;;5095151;28;20253;-66
2020/12/08 02:40:23;;;;;;;11.65;10.45;;;;;;;;;;5095127;28;20228;-66
2020/12/08 02:42:50;;;;;;;17.48;12.27;;;;;;;;;;5095072;28;20208;-66
2020/12/08 02:45:16;;;;;;;13.82;11.50;;;;;;;;;;5094759;28;20201;-66
2020/12/08 02:47:43;;;;;;;14.93;11.63;;;;;;;;;;5094342;28;20273;-66
2020/12/08 02:50:10;;;;;;;15.98;12.13;;;;;;;;;;5094934;28;20273;-66
2020/12/08 02:52:37;;;;;;;16.42;11.90;;;;;;;;;;5095135;28;20196;-66
2020/12/08 02:55:04;;;;;;;13.60;11.82;;;;;;;;;;5095000;28;20249;-66
2020/12/08 02:57:31;;;;;;;14.82;11.38;;;;;;;;;;5095153;28;20204;-66
2020/12/08 02:59:58;;;;;;;16.35;11.82;;;;;;;;;;5095196;28;20262;-66
2020/12/08 03:02:24;;;;;;;12.98;10.90;;;;;;;;;;5095262;28;20348;-65
2020/12/08 03:04:51;;;;;;;14.02;12.60;;;;;;;;;;5099820;28;20226;-66
2020/12/08 03:07:18;;;;;;;16.17;12.32;;;;;;;;;;5103361;28;20234;-69
2020/12/08 03:09:45;;;;;;;16.83;12.05;;;;;;;;;;5104309;28;20273;-65
2020/12/08 03:12:13;;;;;;;15.30;11.10;;;;;;;;;;5095181;28;20200;-64
2020/12/08 03:14:40;;;;;;;14.98;10.93;;;;;;;;;;5094365;28;20205;-65
2020/12/08 03:17:07;;;;;;;12.10;10.57;;;;;;;;;;5094703;28;20229;-67
2020/12/08 03:19:33;;;;;;;13.35;10.45;;;;;;;;;;5094281;28;20213;-65
2020/12/08 03:22:00;;;;;;;13.82;11.93;;;;;;;;;;5094951;28;20257;-65
2020/12/08 03:24:27;;;;;;;15.65;11.95;;;;;;;;;;5094355;28;20204;-65
2020/12/08 03:26:54;;;;;;;14.15;11.85;;;;;;;;;;5094395;28;20595;-66
2020/12/08 03:29:22;;;;;;;13.98;11.50;;;;;;;;;;5093886;28;20699;-66
2020/12/08 03:31:49;;;;;;;15.65;11.30;;;;;;;;;;5094319;28;20200;-66
2020/12/08 03:34:16;;;;;;;13.55;11.38;;;;;;;;;;5094350;28;20264;-66
2020/12/08 03:36:42;;;;;;;16.33;11.98;;;;;;;;;;5093825;28;20204;-65
2020/12/08 03:39:09;;;;;;;12.07;10.73;;;;;;;;;;5094069;28;20196;-65
2020/12/08 03:41:36;;;;;;;14.70;12.25;;;;;;;;;;5093966;28;20200;-65
2020/12/08 03:44:03;;;;;;;12.93;11.43;;;;;;;;;;5094019;28;20200;-65
2020/12/08 03:46:30;;;;;;;13.32;11.48;;;;;;;;;;5093700;28;20251;-66
2020/12/08 03:48:57;;;;;;;12.30;11.00;;;;;;;;;;5093372;28;20266;-65
2020/12/08 03:51:24;;;;;;;13.50;11.80;;;;;;;;;;5094073;28;20256;-66
2020/12/08 03:53:50;;;;;;;14.02;11.48;;;;;;;;;;5094085;28;20200;-63
2020/12/08 03:56:18;;;;;;;12.48;11.18;;;;;;;;;;5094204;28;20201;-65
2020/12/08 03:58:45;;;;;;;12.95;11.13;;;;;;;;;;5094202;28;20200;-64
2020/12/08 04:01:14;;;;;;;13.70;11.52;;;;;;;;;;5096889;28;20220;-66
2020/12/08 04:03:42;;;;;;;14.07;11.43;;;;;;;;;;5105543;28;20200;-65
2020/12/08 04:07:26;;;;;;;15.68;12.02;;;;;;;;;;5112280;27;20602;-65
2020/12/08 04:09:52;;;;;;;14.27;12.45;;;;;;;;;;5111610;28;20245;-67
2020/12/08 04:12:19;;;;;;;14.80;11.43;;;;;;;;;;5111702;28;20253;-64
2020/12/08 04:14:46;;;;;;;15.85;12.77;;;;;;;;;;5111976;28;20204;-65
2020/12/08 04:17:17;;;;;;;14.18;11.68;;;;;;;;;;5111411;28;20204;-65
2020/12/08 04:19:44;;;;;;;13.27;11.18;;;;;;;;;;5112381;28;20223;-67
2020/12/08 04:22:11;;;;;;;15.75;12.52;;;;;;;;;;5114368;28;20261;-65
2020/12/08 04:24:38;;;;;;;14.20;12.48;;;;;;;;;;5112435;28;20673;-65
2020/12/08 04:27:05;;;;;;;15.20;11.63;;;;;;;;;;5111192;28;20212;-65
2020/12/08 04:29:32;;;;;;;13.98;11.48;;;;;;;;;;5111682;28;20272;-65
2020/12/08 04:31:58;;;;;;;13.45;11.15;;;;;;;;;;5111817;28;20225;-65
2020/12/08 04:34:25;;;;;;;15.73;12.20;;;;;;;;;;5111169;28;20196;-65
2020/12/08 04:36:52;;;;;;;13.65;11.35;;;;;;;;;;5111666;28;20265;-66
2020/12/08 04:39:19;;;;;;;16.63;12.52;;;;;;;;;;5111052;28;20272;-65
2020/12/08 04:41:46;;;;;;;13.55;11.63;;;;;;;;;;5111455;28;20272;-66
2020/12/08 04:44:13;;;;;;;13.98;12.15;;;;;;;;;;5111635;28;20551;-65
2020/12/08 04:46:40;;;;;;;14.88;12.00;;;;;;;;;;5111584;28;20216;-65
2020/12/08 04:49:07;;;;;;;15.27;13.10;;;;;;;;;;5111238;28;20667;-66
2020/12/08 04:51:39;;;;;;;14.63;11.82;;;;;;;;;;5111497;28;20286;-66
2020/12/08 04:54:05;;;;;;;13.50;11.20;;;;;;;;;;5111198;28;20210;-65
2020/12/08 04:56:33;;;;;;;13.90;12.02;;;;;;;;;;5110389;28;20196;-65
2020/12/08 04:59:00;;;;;;;13.52;11.63;;;;;;;;;;5110582;28;20199;-66
2020/12/08 05:01:27;;;;;;;14.07;11.48;;;;;;;;;;5110424;28;20208;-65
2020/12/08 05:03:58;;;;;;;14.02;11.38;;;;;;;;;;5110666;28;20617;-66
2020/12/08 05:06:24;;;;;;;16.17;12.38;;;;;;;;;;5110192;28;20219;-65
2020/12/08 05:09:07;;;;;;;15.55;11.52;;;;;;;;;;5110325;28;20257;-64
2020/12/08 05:11:34;;;;;;;14.77;12.52;;;;;;;;;;5110921;28;20204;-65
2020/12/08 05:14:02;;;;;;;13.35;11.38;;;;;;;;;;5110119;28;20719;-66
2020/12/08 05:16:29;;;;;;;14.27;11.63;;;;;;;;;;5110355;28;20230;-65
2020/12/08 05:19:05;;;;;;;14.43;11.35;;;;;;;;;;5095733;28;20204;-65
2020/12/08 05:21:32;;;;;;;14.45;11.15;;;;;;;;;;5096930;28;20237;-65
2020/12/08 05:23:59;;;;;;;13.25;11.60;;;;;;;;;;5097002;28;20200;-66
2020/12/08 05:26:27;;;;;;;14.10;11.68;;;;;;;;;;5106607;28;20223;-64
2020/12/08 05:29:00;;;;;;;15.57;11.82;;;;;;;;;;5108944;28;20201;-63
2020/12/08 05:31:27;;;;;;;17.17;12.25;;;;;;;;;;5108492;28;20220;-65
2020/12/08 05:33:58;;;;;;;16.92;11.90;;;;;;;;;;5107486;28;20200;-65
2020/12/08 05:36:25;;;;;;;14.38;11.95;;;;;;;;;;5109636;28;20191;-65
2020/12/08 05:38:59;;;;;;;12.50;10.68;;;;;;;;;;5108214;28;20684;-65
2020/12/08 05:41:29;;;;;;;18.15;12.60;;;;;;;;;;5096640;28;20605;-64
2020/12/08 05:44:03;;;;;;;17.40;13.70;;;;;;;;;;5096336;28;20189;-64
2020/12/08 05:46:38;;;;;;;17.85;13.73;;;;;;;;;;5096336;28;20205;-65
2020/12/08 05:49:05;;;;;;;15.98;13.27;;;;;;;;;;5098560;28;20692;-67
2020/12/08 05:51:32;;;;;;;16.63;13.05;;;;;;;;;;5100585;28;20729;-64
2020/12/08 05:53:59;;;;;;;18.60;13.50;;;;;;;;;;5096144;28;20215;-65
2020/12/08 05:56:34;;;;;;;18.77;12.95;;;;;;;;;;5096192;28;20196;-64
2020/12/08 05:59:01;;;;;;;19.15;13.63;;;;;;;;;;5098354;28;20180;-65
2020/12/08 06:01:28;;;;;;;18.73;14.13;;;;;;;;;;5096590;28;20200;-64
2020/12/08 06:03:55;;;;;;;17.23;13.43;;;;;;;;;;5097042;28;20279;-65
2020/12/08 06:06:22;;;;;;;18.33;15.48;;;;;;;;;;5095788;28;20224;-65
2020/12/08 06:08:49;;;;;;;20.60;14.60;;;;;;;;;;5095737;28;20274;-65
2020/12/08 06:11:16;;;;;;;19.70;14.73;;;;;;;;;;5096117;28;20270;-65
2020/12/08 06:13:47;;;;;;;17.75;13.55;;;;;;;;;;5096491;28;20201;-65
2020/12/08 06:16:15;;;;;;;26.73;14.85;;;;;;;;;;5096926;28;20177;-64
2020/12/08 06:18:42;;;;;;;20.20;13.93;;;;;;;;;;5096956;28;20249;-65
2020/12/08 06:21:19;;;;;;;19.20;14.07;;;;;;;;;;5096397;28;20224;-65
2020/12/08 06:23:46;;;;;;;22.23;14.63;;;;;;;;;;5095584;28;20238;-64
2020/12/08 06:26:12;;;;;;;17.92;13.95;;;;;;;;;;5095582;28;20250;-64
2020/12/08 06:28:40;;;;;;;22.08;14.45;;;;;;;;;;5094652;28;20196;-65
2020/12/08 06:31:07;;;;;;;20.10;15.00;;;;;;;;;;5095005;28;20220;-65
2020/12/08 06:33:45;;;;;;;21.30;14.50;;;;;;;;;;5095858;28;20620;-65
2020/12/08 06:36:12;;;;;;;19.13;14.43;;;;;;;;;;5096161;28;20181;-65
2020/12/08 06:38:39;;;;;;;19.30;15.88;;;;;;;;;;5095418;28;20234;-65
2020/12/08 06:41:06;;;;;;;21.02;16.30;;;;;;;;;;5095466;28;20220;-65
2020/12/08 06:43:37;;;;;;;19.25;14.13;;;;;;;;;;5095777;28;20204;-64
2020/12/08 06:46:08;;;;;;;19.80;15.05;;;;;;;;;;5094951;28;20244;-63
2020/12/08 06:48:35;;;;;;;18.30;14.85;;;;;;;;;;5095194;28;20223;-64
2020/12/08 06:51:02;;;;;;;18.25;15.00;;;;;;;;;;5094771;28;20578;-66
2020/12/08 06:53:29;;;;;;;20.60;15.70;;;;;;;;;;5095168;28;20267;-66
2020/12/08 06:55:57;;;;;;;20.00;15.98;;;;;;;;;;5103548;28;20219;-65
2020/12/08 06:58:23;;;;;;;20.50;15.93;;;;;;;;;;5104516;28;20196;-66
2020/12/08 07:00:51;;;;;;;23.38;15.73;;;;;;;;;;5101060;28;20228;-64
2020/12/08 07:03:19;;;;;;;18.30;14.65;;;;;;;;;;5097164;28;20288;-65
2020/12/08 07:05:46;;;;;;;20.27;15.85;;;;;;;;;;5095447;28;20224;-65
2020/12/08 07:08:15;;;;;;;19.20;15.70;;;;;;;;;;5094587;28;20212;-65
2020/12/08 07:10:42;;;;;;;22.27;15.32;;;;;;;;;;5094578;28;20636;-66
2020/12/08 07:13:11;;;;;;;21.80;15.80;;;;;;;;;;5094977;28;20196;-64
2020/12/08 07:15:38;;;;;;;21.52;15.85;;;;;;;;;;5094555;28;20200;-65
2020/12/08 07:18:06;;;;;;;21.75;16.23;;;;;;;;;;5094650;28;20270;-65
2020/12/08 07:20:33;;;;;;;18.95;15.13;;;;;;;;;;5094638;28;20307;-66
2020/12/08 07:23:02;;;;;;;23.90;16.30;;;;;;;;;;5094465;28;20273;-66
2020/12/08 07:25:28;;;;;;;21.75;15.65;;;;;;;;;;5094666;28;20650;-66
2020/12/08 07:27:55;;;;;;;22.95;15.85;;;;;;;;;;5094279;28;20196;-66
2020/12/08 07:30:24;;;;;;;19.63;15.20;;;;;;;;;;5093994;28;20576;-64
2020/12/08 07:32:51;;;;;;;21.70;16.85;;;;;;;;;;5094193;28;20675;-65
2020/12/08 07:35:21;;;;;;;22.27;16.73;;;;;;;;;;5094167;28;20204;-65
2020/12/08 07:37:48;;;;;;;20.33;15.40;;;;;;;;;;5100192;28;20207;-66
2020/12/08 07:40:15;;;;;;;23.65;17.30;;;;;;;;;;5094058;28;20246;-66
2020/12/08 07:42:53;;;;;;;19.95;15.60;;;;;;;;;;5094364;28;20204;-63
2020/12/08 07:45:20;;;;;;;20.33;15.20;;;;;;;;;;5094243;28;20208;-63
2020/12/08 07:47:52;;;;;;;25.38;17.80;;;;;;;;;;5095731;28;20269;-65
2020/12/08 07:50:22;;;;;;;22.98;16.83;;;;;;;;;;5100112;28;20224;-65
2020/12/08 07:52:59;;;;;;;23.17;16.60;;;;;;;;;;5095829;28;20250;-66
2020/12/08 07:55:26;;;;;;;20.15;15.68;;;;;;;;;;5095233;28;20279;-69
2020/12/08 07:57:52;;;;;;;24.00;16.77;;;;;;;;;;5094969;28;20196;-65
2020/12/08 08:00:19;;;;;;;20.33;17.10;;;;;;;;;;5094720;28;20224;-63
2020/12/08 08:05:52;;;;;;;20.67;15.45;;;;;;;;;;5093788;28;20222;-65
2020/12/08 08:08:19;;;;;;;23.70;16.27;;;;;;;;;;5093654;28;20209;-64
2020/12/08 08:10:45;;;;;;;21.67;15.55;;;;;;;;;;5094053;28;20574;-64
2020/12/08 08:13:12;;;;;;;18.23;15.10;;;;;;;;;;5093521;28;20208;-65
2020/12/08 08:15:39;;;;;;;18.05;13.85;;;;;;;;;;5093649;28;20680;-65
2020/12/08 08:18:06;;;;;;;21.13;15.20;;;;;;;;;;5094067;28;20291;-65
2020/12/08 08:20:33;;;;;;;18.33;14.23;;;;;;;;;;5093498;28;20259;-65
2020/12/08 08:23:01;;;;;;;19.52;14.02;;;;;;;;;;5093568;28;20710;-64
2020/12/08 08:25:28;;;;;;;19.88;14.82;;;;;;;;;;5093780;28;20288;-65
2020/12/08 08:27:55;;;;;;;18.75;14.00;;;;;;;;;;5093920;28;20228;-63
2020/12/08 08:30:21;;;;;;;18.63;13.63;;;;;;;;;;5093796;28;20744;-65
2020/12/08 08:32:48;;;;;;;17.75;13.40;;;;;;;;;;5093594;28;20370;-66
2020/12/08 08:35:15;;;;;;;20.35;15.05;;;;;;;;;;5093271;28;20208;-64
2020/12/08 08:37:42;;;;;;;22.13;13.80;;;;;;;;;;5093351;28;20200;-62
2020/12/08 08:40:10;;;;;;;20.55;15.85;;;;;;;;;;5092977;28;20220;-65
2020/12/08 08:42:37;;;;;;;17.85;13.88;;;;;;;;;;5093297;28;20283;-65
2020/12/08 08:45:04;;;;;;;18.50;14.70;;;;;;;;;;5092824;28;20200;-64
2020/12/08 08:47:31;;;;;;;22.95;16.42;;;;;;;;;;5093208;28;20316;-66
2020/12/08 08:49:57;;;;;;;17.88;14.20;;;;;;;;;;5093927;28;20220;-65
2020/12/08 08:52:24;;;;;;;19.92;15.05;;;;;;;;;;5094525;28;20232;-65
2020/12/08 08:54:51;;;;;;;19.73;14.27;;;;;;;;;;5096864;28;20277;-64
2020/12/08 08:57:19;;;;;;;19.75;14.82;;;;;;;;;;5097042;28;20684;-61
2020/12/08 08:59:46;;;;;;;18.92;13.93;;;;;;;;;;5096836;28;20273;-64
2020/12/08 09:02:14;;;;;;;21.42;15.52;;;;;;;;;;5097322;28;20196;-65
2020/12/08 09:04:40;;;;;;;23.42;14.70;;;;;;;;;;5097652;28;20570;-66
2020/12/08 09:07:07;;;;;;;20.80;15.60;;;;;;;;;;5097329;28;20224;-65
2020/12/08 09:09:35;;;;;;;17.42;13.85;;;;;;;;;;5097400;28;20311;-65
2020/12/08 09:12:02;;;;;;;19.23;14.48;;;;;;;;;;5097649;28;20196;-66
2020/12/08 09:14:31;;;;;;;19.13;15.23;;;;;;;;;;5097586;28;20747;-64
2020/12/08 09:16:58;;;;;;;17.60;13.20;;;;;;;;;;5097423;28;20399;-69
2020/12/08 09:19:25;;;;;;;15.55;13.07;;;;;;;;;;5097476;28;20273;-67
2020/12/08 09:21:53;;;;;;;20.65;14.55;;;;;;;;;;5097826;28;20200;-65
2020/12/08 09:24:20;;;;;;;17.10;13.85;;;;;;;;;;5097430;28;20586;-66
2020/12/08 09:26:47;;;;;;;17.55;13.07;;;;;;;;;;5099535;28;20653;-65
2020/12/08 09:29:14;;;;;;;20.60;14.38;;;;;;;;;;5100941;28;20289;-64
2020/12/08 09:31:42;;;;;;;17.73;13.27;;;;;;;;;;5104884;28;20223;-62
2020/12/08 09:34:09;;;;;;;23.45;13.40;;;;;;;;;;5100053;28;20392;-64
2020/12/08 09:36:36;;;;;;;19.13;13.57;;;;;;;;;;5102466;28;20203;-63
2020/12/08 09:39:03;;;;;;;19.92;14.43;;;;;;;;;;5098871;28;20291;-66
2020/12/08 09:41:30;;;;;;;19.42;14.05;;;;;;;;;;5096970;28;20624;-65
2020/12/08 09:43:57;;;;;;;20.08;13.57;;;;;;;;;;5096526;28;20202;-65
2020/12/08 09:46:24;;;;;;;16.25;12.63;;;;;;;;;;5097588;28;20572;-65
2020/12/08 09:51:20;;;;;;;21.02;15.63;;;;;;;;;;5114671;28;20215;-57
2020/12/08 09:53:48;;;;;;;21.33;14.77;;;;;;;;;;5115632;28;20286;-57
2020/12/08 09:56:15;;;;;;;22.75;16.40;;;;;;;;;;5116339;28;20199;-60
2020/12/08 09:58:41;;;;;;;26.52;16.52;;;;;;;;;;5115442;28;20294;-60
2020/12/08 10:01:08;;;;;;;24.08;16.00;;;;;;;;;;5115853;28;20255;-58
2020/12/08 10:03:37;;;;;;;19.08;14.13;;;;;;;;;;5115893;28;20302;-55
2020/12/08 10:06:04;;;;;;;20.75;15.05;;;;;;;;;;5115191;28;20310;-56
2020/12/08 10:08:32;;;;;;;18.52;15.65;;;;;;;;;;5115171;28;20678;-56
2020/12/08 10:10:59;;;;;;;17.65;14.40;;;;;;;;;;5115497;28;20571;-56
2020/12/08 10:13:26;;;;;;;20.15;15.45;;;;;;;;;;5115353;28;20344;-55
2020/12/08 10:15:53;;;;;;;22.50;16.77;;;;;;;;;;5115127;28;20196;-55
2020/12/08 10:18:20;;;;;;;27.05;17.73;;;;;;;;;;5115593;28;20234;-55
2020/12/08 10:20:46;;;;;;;26.13;17.67;;;;;;;;;;5115024;28;20301;-55
2020/12/08 10:23:13;;;;;;;33.50;21.70;;;;;;;;;;5115211;28;20392;-55
2020/12/08 10:25:41;;;;;;;37.60;22.73;;;;;;;;;;5115034;28;20200;-56
2020/12/08 10:28:08;;;;;;;34.60;22.38;;;;;;;;;;5115014;28;20272;-55
2020/12/08 10:30:35;;;;;;;32.97;21.05;;;;;;;;;;5114690;28;20315;-55
2020/12/08 10:33:02;;;;;;;30.80;18.52;;;;;;;;;;5114932;28;20229;-55
2020/12/08 10:35:29;;;;;;;30.08;19.15;;;;;;;;;;5114899;28;20235;-55
2020/12/08 10:37:56;;;;;;;30.67;17.80;;;;;;;;;;5114775;28;20286;-55
2020/12/08 10:40:23;;;;;;;36.15;20.10;;;;;;;;;;5114681;28;20306;-56
2020/12/08 10:42:51;;;;;;;39.28;21.88;;;;;;;;;;5114649;28;20210;-56
2020/12/08 10:45:18;;;;;;;41.88;25.90;;;;;;;;;;5115377;28;20287;-55
2020/12/08 10:47:45;;;;;;;45.28;26.20;;;;;;;;;;5114565;28;20310;-56
2020/12/08 10:50:12;;;;;;;46.10;29.58;;;;;;;;;;5114692;28;20322;-55
2020/12/08 10:52:39;;;;;;;48.00;27.77;;;;;;;;;;5114258;28;20282;-55
2020/12/08 10:55:06;;;;;;;49.83;29.50;;;;;;;;;;5114552;28;20750;-59
2020/12/08 10:57:33;;;;;;;47.92;27.55;;;;;;;;;;5114162;28;20291;-60
2020/12/08 11:00:01;;;;;;;38.80;25.23;;;;;;;;;;5114110;28;20215;-56
2020/12/08 11:02:28;;;;;;;39.83;24.98;;;;;;;;;;5114347;28;20218;-57
2020/12/08 11:04:55;;;;;;;42.47;25.15;;;;;;;;;;5114563;28;20234;-58
2020/12/08 11:07:22;;;;;;;36.78;23.88;;;;;;;;;;5114527;28;20694;-57
2020/12/08 11:09:49;;;;;;;40.10;25.13;;;;;;;;;;5115336;28;20310;-57
2020/12/08 11:12:16;;;;;;;35.95;24.48;;;;;;;;;;5115339;28;20282;-56
2020/12/08 11:14:43;;;;;;;38.80;24.13;;;;;;;;;;5114793;28;20286;-58
2020/12/08 11:17:11;;;;;;;35.83;24.45;;;;;;;;;;5115497;28;20231;-57
2020/12/08 11:19:37;;;;;;;37.47;23.27;;;;;;;;;;5115266;28;20219;-56
2020/12/08 11:22:05;;;;;;;32.97;23.30;;;;;;;;;;5115244;28;20199;-57
2020/12/08 11:24:32;;;;;;;34.05;23.50;;;;;;;;;;5115048;28;20290;-57
2020/12/08 11:26:58;;;;;;;31.52;21.20;;;;;;;;;;5115349;28;20315;-57
2020/12/08 11:29:26;;;;;;;31.05;22.98;;;;;;;;;;5115115;28;20310;-57
2020/12/08 11:31:52;;;;;;;27.48;21.42;;;;;;;;;;5114996;28;20200;-57
2020/12/08 11:34:20;;;;;;;27.10;20.85;;;;;;;;;;5115118;28;20286;-56
2020/12/08 11:36:47;;;;;;;28.08;22.30;;;;;;;;;;5114694;28;20291;-57
2020/12/08 11:39:14;;;;;;;22.52;19.02;;;;;;;;;;5114958;28;20302;-58
2020/12/08 11:41:42;;;;;;;23.58;19.00;;;;;;;;;;5114456;28;20267;-57
2020/12/08 11:44:11;;;;;;;22.95;18.42;;;;;;;;;;5116317;28;20263;-57
2020/12/08 11:46:38;;;;;;;21.77;17.60;;;;;;;;;;5116447;28;20310;-58
2020/12/08 11:49:05;;;;;;;24.00;18.10;;;;;;;;;;5115482;28;20266;-58
2020/12/08 11:51:33;;;;;;;23.83;18.20;;;;;;;;;;5116853;28;20286;-58
2020/12/08 11:54:00;;;;;;;24.15;19.05;;;;;;;;;;5116719;28;20290;-59
2020/12/08 11:56:27;;;;;;;24.73;19.45;;;;;;;;;;5117179;28;20556;-58
2020/12/08 11:58:55;;;;;;;24.75;18.90;;;;;;;;;;5115838;28;20654;-58
2020/12/08 12:01:23;;;;;;;20.10;17.23;;;;;;;;;;5114948;28;20268;-59
2020/12/08 12:03:49;;;;;;;21.83;18.00;;;;;;;;;;5114175;28;20299;-57
2020/12/08 12:06:16;;;;;;;23.48;18.83;;;;;;;;;;5114257;28;20286;-59
2020/12/08 12:08:44;;;;;;;23.20;18.25;;;;;;;;;;5114995;28;20203;-58
2020/12/08 12:11:11;;;;;;;23.02;18.75;;;;;;;;;;5113928;28;20750;-57
2020/12/08 12:13:38;;;;;;;21.60;17.70;;;;;;;;;;5114344;28;20611;-58
2020/12/08 12:16:05;;;;;;;23.95;18.80;;;;;;;;;;5115144;28;20299;-58
2020/12/08 12:18:32;;;;;;;23.85;21.20;;;;;;;;;;5114082;28;20242;-58
2020/12/08 12:20:59;;;;;;;27.38;19.27;;;;;;;;;;5114024;28;20216;-57
2020/12/08 12:23:26;;;;;;;22.30;18.02;;;;;;;;;;5113400;28;20234;-57
2020/12/08 12:25:53;;;;;;;26.30;18.20;;;;;;;;;;5114082;28;20290;-57
2020/12/08 12:28:20;;;;;;;25.90;19.52;;;;;;;;;;5116671;28;20314;-57
2020/12/08 12:30:47;;;;;;;22.55;18.40;;;;;;;;;;5118507;28;20322;-56
2020/12/08 12:33:14;;;;;;;23.05;19.30;;;;;;;;;;5117860;28;20774;-57
2020/12/08 12:35:41;;;;;;;23.55;20.23;;;;;;;;;;5118368;28;20204;-57
2020/12/08 12:38:08;;;;;;;25.40;18.52;;;;;;;;;;5117968;28;20222;-58
2020/12/08 12:40:35;;;;;;;25.02;19.75;;;;;;;;;;5117694;28;20219;-57
2020/12/08 12:43:03;;;;;;;24.20;20.17;;;;;;;;;;5118140;28;20287;-57
2020/12/08 12:45:31;;;;;;;23.92;19.90;;;;;;;;;;5117607;28;20225;-56
2020/12/08 12:47:58;;;;;;;24.08;19.08;;;;;;;;;;5118393;28;20276;-57
2020/12/08 12:50:25;;;;;;;27.38;20.92;;;;;;;;;;5117372;28;20254;-58
2020/12/08 12:52:52;;;;;;;23.17;19.90;;;;;;;;;;5118008;28;20286;-58
2020/12/08 12:55:19;;;;;;;24.50;19.42;;;;;;;;;;5117889;28;20249;-56
2020/12/08 12:57:46;;;;;;;24.80;19.33;;;;;;;;;;5118014;28;20200;-56
2020/12/08 13:00:13;;;;;;;25.98;20.17;;;;;;;;;;5117311;28;20369;-56
2020/12/08 13:02:40;;;;;;;26.45;20.10;;;;;;;;;;5117492;28;20690;-57
2020/12/08 13:05:07;;;;;;;23.73;19.60;;;;;;;;;;5117248;28;20267;-56
2020/12/08 13:07:34;;;;;;;27.25;19.92;;;;;;;;;;5117123;28;20369;-56
2020/12/08 13:10:01;;;;;;;24.90;19.95;;;;;;;;;;5117534;28;20308;-57
2020/12/08 13:12:28;;;;;;;25.08;20.20;;;;;;;;;;5118407;28;20620;-57
2020/12/08 13:14:55;;;;;;;25.80;20.48;;;;;;;;;;5118395;28;20294;-57
2020/12/08 13:17:23;;;;;;;27.42;19.92;;;;;;;;;;5117120;28;20294;-56
2020/12/08 13:19:49;;;;;;;28.25;21.10;;;;;;;;;;5117009;28;20220;-58
2020/12/08 13:22:16;;;;;;;25.45;20.40;;;;;;;;;;5118802;28;20210;-58
2020/12/08 13:24:43;;;;;;;29.90;21.80;;;;;;;;;;5117693;28;20206;-59
2020/12/08 13:27:10;;;;;;;24.55;19.02;;;;;;;;;;5117710;28;20225;-59
2020/12/08 13:29:37;;;;;;;25.85;19.33;;;;;;;;;;5118010;28;20226;-58
2020/12/08 13:32:04;;;;;;;27.98;20.30;;;;;;;;;;5119328;28;20210;-58
2020/12/08 13:34:32;;;;;;;27.33;21.45;;;;;;;;;;5117873;28;20287;-58
2020/12/08 13:36:59;;;;;;;30.73;20.35;;;;;;;;;;5118397;28;20196;-58
2020/12/08 13:39:26;;;;;;;26.25;19.98;;;;;;;;;;5117602;28;20350;-58
2020/12/08 13:41:53;;;;;;;29.52;19.77;;;;;;;;;;5118438;28;20225;-58
2020/12/08 13:44:20;;;;;;;25.52;18.90;;;;;;;;;;5116835;28;20207;-61
2020/12/08 13:46:46;;;;;;;28.20;19.70;;;;;;;;;;5116252;28;20306;-58
2020/12/08 13:49:13;;;;;;;29.23;20.80;;;;;;;;;;5115311;28;20225;-58
2020/12/08 13:51:41;;;;;;;24.13;18.60;;;;;;;;;;5115852;28;20556;-59
2020/12/08 13:54:08;;;;;;;27.48;19.88;;;;;;;;;;5115534;28;20195;-58
2020/12/08 13:56:35;;;;;;;27.50;20.63;;;;;;;;;;5115356;28;20191;-57
2020/12/08 13:59:02;;;;;;;30.92;23.17;;;;;;;;;;5114982;28;20206;-58
2020/12/08 14:01:29;;;;;;;24.63;20.50;;;;;;;;;;5115270;28;20302;-57
2020/12/08 14:03:56;;;;;;;24.73;19.90;;;;;;;;;;5115101;28;20334;-58
2020/12/08 14:06:23;;;;;;;26.77;20.50;;;;;;;;;;5115014;28;20290;-58
2020/12/08 14:08:51;;;;;;;30.27;21.02;;;;;;;;;;5114921;28;20210;-58
2020/12/08 14:11:18;;;;;;;26.83;19.95;;;;;;;;;;5115210;28;20239;-59
2020/12/08 14:13:45;;;;;;;26.73;20.70;;;;;;;;;;5115438;28;20349;-58
2020/12/08 14:16:12;;;;;;;25.40;19.88;;;;;;;;;;5115445;28;20200;-57
2020/12/08 14:18:40;;;;;;;26.63;20.17;;;;;;;;;;5115768;28;20192;-57
2020/12/08 14:21:07;;;;;;;27.00;20.60;;;;;;;;;;5115495;28;20770;-58
2020/12/08 14:23:34;;;;;;;23.65;18.60;;;;;;;;;;5116316;28;20374;-58